Time;durP1;ratioP1;P1;durP2;ratioP2;P2;SDS_P1;SDS_P2;PMS_P1;PMS_P2;Temp;Humidity;BMP_temperature;BMP_pressure;BME280_temperature;BME280_humidity;BME280_pressure;Samples;Min_cycle;Max_cycle;Signal;HPM_P1;HPM_P2
2023/12/21 00:00:11;;;;;;;7.95;1.60;;;;;;;;;;5021523;28;20031;-37
2023/12/21 00:02:38;;;;;;;8.68;2.05;;;;;;;;;;5028994;28;20021;-36
2023/12/21 00:05:05;;;;;;;7.22;2.05;;;;;;;;;;5023929;28;20029;-38
2023/12/21 00:07:32;;;;;;;4.53;1.48;;;;;;;;;;5026478;28;20025;-38
2023/12/21 00:09:59;;;;;;;10.27;1.77;;;;;;;;;;5024827;28;20037;-37
2023/12/21 00:12:26;;;;;;;9.55;2.00;;;;;;;;;;5021231;28;20025;-36
2023/12/21 00:14:53;;;;;;;6.38;1.70;;;;;;;;;;5017133;28;20435;-40
2023/12/21 00:17:20;;;;;;;7.30;1.95;;;;;;;;;;5028633;28;20768;-36
2023/12/21 00:19:47;;;;;;;3.85;1.23;;;;;;;;;;5025678;28;20057;-39
2023/12/21 00:22:14;;;;;;;6.95;1.70;;;;;;;;;;5028178;28;20033;-38
2023/12/21 00:24:41;;;;;;;8.02;1.73;;;;;;;;;;5015162;28;20025;-36
2023/12/21 00:27:08;;;;;;;8.52;1.92;;;;;;;;;;5019057;28;20164;-35
2023/12/21 00:29:35;;;;;;;8.90;1.92;;;;;;;;;;5015091;28;20045;-38
2023/12/21 00:32:02;;;;;;;6.40;1.77;;;;;;;;;;5017007;28;20503;-35
2023/12/21 00:34:29;;;;;;;8.18;1.77;;;;;;;;;;5022330;28;20029;-37
2023/12/21 00:36:56;;;;;;;6.47;1.55;;;;;;;;;;5028055;28;20036;-38
2023/12/21 00:39:24;;;;;;;10.00;2.20;;;;;;;;;;5024155;28;20050;-37
2023/12/21 00:41:51;;;;;;;6.75;1.88;;;;;;;;;;5019527;28;20034;-34
2023/12/21 00:44:18;;;;;;;13.05;2.28;;;;;;;;;;5019685;28;20041;-38
2023/12/21 00:46:45;;;;;;;10.60;2.05;;;;;;;;;;5030101;28;20025;-35
2023/12/21 00:49:12;;;;;;;11.68;2.13;;;;;;;;;;5031953;28;20083;-37
2023/12/21 00:51:39;;;;;;;11.00;2.20;;;;;;;;;;5019874;28;20046;-39
2023/12/21 00:54:06;;;;;;;10.63;2.35;;;;;;;;;;5019112;28;20082;-36
2023/12/21 00:56:33;;;;;;;9.65;2.45;;;;;;;;;;5031553;28;20029;-34
2023/12/21 00:59:00;;;;;;;10.02;2.05;;;;;;;;;;5028947;28;20041;-39
2023/12/21 01:01:27;;;;;;;5.10;1.70;;;;;;;;;;5033032;28;20022;-35
2023/12/21 01:03:54;;;;;;;11.25;2.38;;;;;;;;;;5032760;28;20546;-37
2023/12/21 01:06:21;;;;;;;13.93;2.20;;;;;;;;;;5029937;28;20037;-40
2023/12/21 01:08:48;;;;;;;14.63;2.38;;;;;;;;;;5031807;28;20030;-38
2023/12/21 01:11:15;;;;;;;12.20;2.28;;;;;;;;;;5026898;28;20567;-37
2023/12/21 01:13:42;;;;;;;9.90;2.40;;;;;;;;;;5022246;28;20033;-38
2023/12/21 01:16:09;;;;;;;14.35;2.88;;;;;;;;;;5024687;28;20376;-40
2023/12/21 01:18:37;;;;;;;11.20;2.75;;;;;;;;;;5026152;28;20040;-38
2023/12/21 01:21:04;;;;;;;13.10;2.45;;;;;;;;;;5028775;28;20124;-35
2023/12/21 01:23:31;;;;;;;13.93;2.88;;;;;;;;;;5027886;28;20087;-38
2023/12/21 01:26:00;;;;;;;16.42;3.00;;;;;;;;;;5018845;28;20107;-37
2023/12/21 01:28:27;;;;;;;14.60;2.63;;;;;;;;;;5018661;28;20485;-38
2023/12/21 01:30:54;;;;;;;13.20;2.80;;;;;;;;;;5017867;28;20723;-39
2023/12/21 01:33:21;;;;;;;12.15;3.47;;;;;;;;;;5019968;28;20499;-37
2023/12/21 01:35:48;;;;;;;16.83;2.80;;;;;;;;;;5031536;28;20025;-36
2023/12/21 01:38:15;;;;;;;12.82;2.95;;;;;;;;;;5014469;28;20116;-37
2023/12/21 01:40:42;;;;;;;13.05;3.20;;;;;;;;;;5019242;28;20029;-37
2023/12/21 01:43:09;;;;;;;13.25;3.28;;;;;;;;;;5028412;28;20032;-35
2023/12/21 01:45:36;;;;;;;17.75;3.78;;;;;;;;;;5020243;28;20025;-37
2023/12/21 01:48:03;;;;;;;20.33;4.25;;;;;;;;;;5009321;28;20030;-36
2023/12/21 01:50:30;;;;;;;60.67;13.95;;;;;;;;;;5028573;28;20124;-39
2023/12/21 01:52:58;;;;;;;87.00;20.90;;;;;;;;;;5022588;28;20046;-37
2023/12/21 01:55:27;;;;;;;105.25;26.70;;;;;;;;;;5025547;28;20061;-39
2023/12/21 01:57:54;;;;;;;146.65;36.15;;;;;;;;;;5018250;28;20033;-40
2023/12/21 02:00:21;;;;;;;165.73;40.05;;;;;;;;;;5025959;28;20021;-41
2023/12/21 02:02:49;;;;;;;158.20;40.78;;;;;;;;;;5030402;28;20033;-36
2023/12/21 02:05:16;;;;;;;162.13;41.53;;;;;;;;;;5023735;28;20072;-35
2023/12/21 02:07:43;;;;;;;147.15;41.30;;;;;;;;;;5030458;28;20128;-39
2023/12/21 02:10:10;;;;;;;154.93;40.00;;;;;;;;;;5027077;28;20534;-38
2023/12/21 02:12:37;;;;;;;150.07;40.80;;;;;;;;;;5023840;28;20062;-37
2023/12/21 02:15:04;;;;;;;123.97;35.97;;;;;;;;;;5028124;28;20029;-38
2023/12/21 02:17:32;;;;;;;117.43;35.20;;;;;;;;;;5028857;28;20030;-39
2023/12/21 02:19:59;;;;;;;120.20;34.65;;;;;;;;;;5030627;28;20483;-40
2023/12/21 02:22:28;;;;;;;108.32;33.88;;;;;;;;;;5035332;28;20029;-38
2023/12/21 02:24:55;;;;;;;105.72;32.28;;;;;;;;;;5034049;28;20079;-39
2023/12/21 02:27:22;;;;;;;109.65;32.88;;;;;;;;;;5032886;28;20064;-38
2023/12/21 02:29:49;;;;;;;103.60;32.15;;;;;;;;;;5024252;28;20550;-41
2023/12/21 02:32:16;;;;;;;96.25;30.85;;;;;;;;;;5015555;28;20064;-38
2023/12/21 02:34:43;;;;;;;100.60;32.05;;;;;;;;;;5015895;28;20434;-43
2023/12/21 02:37:10;;;;;;;96.20;30.88;;;;;;;;;;5025966;28;20491;-41
2023/12/21 02:39:37;;;;;;;88.22;28.88;;;;;;;;;;5027442;28;20333;-43
2023/12/21 02:42:05;;;;;;;84.40;27.02;;;;;;;;;;5032796;28;20033;-46
2023/12/21 02:44:31;;;;;;;78.70;24.30;;;;;;;;;;5025393;28;20507;-45
2023/12/21 02:46:58;;;;;;;80.75;25.08;;;;;;;;;;5033514;28;20025;-40
2023/12/21 02:49:25;;;;;;;78.38;23.08;;;;;;;;;;5036929;28;20044;-37
2023/12/21 02:51:55;;;;;;;68.07;21.30;;;;;;;;;;5030646;28;20045;-44
2023/12/21 02:54:22;;;;;;;65.00;20.88;;;;;;;;;;5022047;28;20026;-44
2023/12/21 02:56:49;;;;;;;57.78;18.80;;;;;;;;;;5031326;28;20072;-44
2023/12/21 02:59:16;;;;;;;62.58;20.27;;;;;;;;;;5030785;28;20033;-42
2023/12/21 03:01:43;;;;;;;70.07;22.05;;;;;;;;;;5034205;28;20025;-42
2023/12/21 03:04:10;;;;;;;64.70;21.10;;;;;;;;;;5024141;28;20033;-43
2023/12/21 03:06:37;;;;;;;71.88;21.88;;;;;;;;;;5023376;28;20021;-43
2023/12/21 03:09:04;;;;;;;67.10;21.33;;;;;;;;;;5026552;28;20546;-45
2023/12/21 03:11:32;;;;;;;69.10;21.73;;;;;;;;;;5029720;28;20026;-44
2023/12/21 03:13:59;;;;;;;67.28;21.63;;;;;;;;;;5025120;28;20021;-45
2023/12/21 03:16:26;;;;;;;75.93;22.10;;;;;;;;;;5027833;28;20476;-43
2023/12/21 03:18:53;;;;;;;67.03;22.10;;;;;;;;;;5028266;28;20025;-46
2023/12/21 03:21:20;;;;;;;63.97;20.58;;;;;;;;;;5030096;28;20119;-46
2023/12/21 03:23:47;;;;;;;65.53;20.55;;;;;;;;;;5035258;28;20033;-46
2023/12/21 03:26:14;;;;;;;57.55;19.33;;;;;;;;;;5011514;28;20034;-42
2023/12/21 03:28:45;;;;;;;61.53;20.45;;;;;;;;;;5029098;28;20039;-44
2023/12/21 03:31:12;;;;;;;58.75;18.98;;;;;;;;;;5030952;28;20025;-44
2023/12/21 03:33:39;;;;;;;55.38;19.88;;;;;;;;;;5032777;28;20025;-45
2023/12/21 03:36:07;;;;;;;59.40;19.45;;;;;;;;;;5028264;28;20088;-45
2023/12/21 03:38:34;;;;;;;58.67;19.38;;;;;;;;;;5029648;28;20552;-38
2023/12/21 03:41:01;;;;;;;61.10;18.55;;;;;;;;;;5037288;28;20052;-41
2023/12/21 03:43:28;;;;;;;59.70;19.73;;;;;;;;;;5024517;28;20040;-45
2023/12/21 03:45:55;;;;;;;60.05;19.08;;;;;;;;;;5032084;28;20488;-42
2023/12/21 03:48:22;;;;;;;63.05;18.45;;;;;;;;;;5031527;28;20030;-45
2023/12/21 03:50:49;;;;;;;62.72;19.63;;;;;;;;;;5024540;28;20033;-43
2023/12/21 03:53:19;;;;;;;54.78;18.40;;;;;;;;;;5032960;28;20064;-44
2023/12/21 03:55:46;;;;;;;52.25;18.30;;;;;;;;;;5028997;28;20121;-43
2023/12/21 03:58:13;;;;;;;56.60;19.70;;;;;;;;;;5031108;28;20061;-43
2023/12/21 04:00:40;;;;;;;60.08;17.75;;;;;;;;;;5032993;28;20033;-42
2023/12/21 04:03:07;;;;;;;61.70;18.25;;;;;;;;;;5037351;28;20021;-45
2023/12/21 04:05:34;;;;;;;47.78;17.65;;;;;;;;;;5030902;28;20029;-46
2023/12/21 04:08:01;;;;;;;51.58;17.90;;;;;;;;;;5033981;28;20029;-44
2023/12/21 04:10:28;;;;;;;51.30;17.73;;;;;;;;;;5030692;28;20076;-44
2023/12/21 04:12:55;;;;;;;47.45;17.13;;;;;;;;;;5025268;28;20492;-42
2023/12/21 04:15:23;;;;;;;51.60;17.20;;;;;;;;;;5022499;28;20026;-42
2023/12/21 04:17:50;;;;;;;48.80;16.92;;;;;;;;;;5028303;28;20033;-45
2023/12/21 04:20:17;;;;;;;50.72;16.55;;;;;;;;;;5029075;28;20033;-45
2023/12/21 04:22:45;;;;;;;48.95;18.15;;;;;;;;;;5022469;28;20022;-45
2023/12/21 04:25:12;;;;;;;44.28;16.02;;;;;;;;;;5021495;28;20460;-44
2023/12/21 04:27:39;;;;;;;44.22;16.00;;;;;;;;;;5024453;28;20468;-44
2023/12/21 04:30:06;;;;;;;46.63;15.95;;;;;;;;;;5007768;28;20029;-46
2023/12/21 04:32:33;;;;;;;45.92;16.27;;;;;;;;;;5023840;28;20116;-44
2023/12/21 04:35:00;;;;;;;45.50;15.35;;;;;;;;;;5020680;28;20108;-43
2023/12/21 04:37:27;;;;;;;44.60;15.05;;;;;;;;;;5026332;28;20026;-44
2023/12/21 04:39:54;;;;;;;41.08;16.15;;;;;;;;;;5028250;28;20087;-44
2023/12/21 04:42:21;;;;;;;41.45;15.05;;;;;;;;;;5026315;28;20021;-45
2023/12/21 04:44:48;;;;;;;38.78;14.63;;;;;;;;;;5030997;28;20108;-45
2023/12/21 04:47:15;;;;;;;44.50;15.32;;;;;;;;;;5031993;28;20476;-44
2023/12/21 04:49:42;;;;;;;42.08;14.48;;;;;;;;;;5028385;28;20034;-45
2023/12/21 04:52:09;;;;;;;37.33;14.55;;;;;;;;;;5029283;28;20045;-44
2023/12/21 04:54:36;;;;;;;37.47;13.75;;;;;;;;;;5026478;28;20029;-44
2023/12/21 04:57:03;;;;;;;35.33;13.48;;;;;;;;;;5028803;28;20084;-45
2023/12/21 04:59:30;;;;;;;41.42;14.75;;;;;;;;;;5026753;28;20034;-45
2023/12/21 05:01:58;;;;;;;40.58;14.23;;;;;;;;;;5031980;28;20086;-43
2023/12/21 05:04:26;;;;;;;35.30;12.65;;;;;;;;;;5032096;28;20091;-47
2023/12/21 05:06:53;;;;;;;34.78;13.27;;;;;;;;;;5026497;28;20514;-44
2023/12/21 05:09:20;;;;;;;35.80;12.35;;;;;;;;;;5028319;28;20037;-46
2023/12/21 05:11:47;;;;;;;32.55;12.13;;;;;;;;;;5009019;28;20114;-45
2023/12/21 05:14:14;;;;;;;35.20;13.13;;;;;;;;;;5025242;28;20120;-44
2023/12/21 05:16:42;;;;;;;31.33;13.18;;;;;;;;;;5030708;28;20377;-44
2023/12/21 05:19:09;;;;;;;31.20;12.38;;;;;;;;;;5032866;28;20411;-45
2023/12/21 05:21:36;;;;;;;32.40;12.43;;;;;;;;;;5045953;28;20040;-47
2023/12/21 05:24:03;;;;;;;30.75;11.75;;;;;;;;;;5036235;28;20494;-44
2023/12/21 05:26:31;;;;;;;29.30;11.43;;;;;;;;;;5034463;28;20167;-45
2023/12/21 05:28:58;;;;;;;29.48;11.60;;;;;;;;;;5050593;28;20059;-44
2023/12/21 05:31:25;;;;;;;26.85;10.85;;;;;;;;;;5047098;28;20025;-45
2023/12/21 05:33:52;;;;;;;30.17;11.00;;;;;;;;;;5031990;28;20032;-43
2023/12/21 05:36:23;;;;;;;31.27;12.05;;;;;;;;;;5032101;28;20495;-44
2023/12/21 05:38:50;;;;;;;29.52;11.73;;;;;;;;;;5028690;28;20433;-44
2023/12/21 05:41:17;;;;;;;24.52;10.07;;;;;;;;;;5043673;28;20482;-43
2023/12/21 05:43:44;;;;;;;29.35;10.63;;;;;;;;;;5052056;28;20483;-42
2023/12/21 05:46:11;;;;;;;27.63;11.02;;;;;;;;;;5039200;28;20072;-43
2023/12/21 05:48:38;;;;;;;24.48;10.50;;;;;;;;;;5052107;28;20035;-43
2023/12/21 05:51:05;;;;;;;27.35;10.90;;;;;;;;;;5041998;28;20388;-43
2023/12/21 05:53:33;;;;;;;26.02;10.30;;;;;;;;;;5032165;28;20061;-43
2023/12/21 05:56:08;;;;;;;24.13;9.93;;;;;;;;;;5032303;28;20045;-44
2023/12/21 05:58:38;;;;;;;24.40;9.95;;;;;;;;;;5032215;28;20056;-43
2023/12/21 06:01:05;;;;;;;22.30;9.48;;;;;;;;;;5031011;28;20032;-44
2023/12/21 06:03:32;;;;;;;20.85;9.23;;;;;;;;;;5022101;28;20057;-44
2023/12/21 06:05:59;;;;;;;23.02;9.70;;;;;;;;;;5028810;28;20056;-45
2023/12/21 06:08:26;;;;;;;25.60;9.63;;;;;;;;;;5042789;28;20029;-43
2023/12/21 06:10:54;;;;;;;22.15;9.43;;;;;;;;;;5050965;28;20033;-45
2023/12/21 06:13:21;;;;;;;20.92;8.60;;;;;;;;;;5045621;28;20515;-44
2023/12/21 06:15:48;;;;;;;20.25;8.88;;;;;;;;;;5021100;28;20025;-44
2023/12/21 06:18:15;;;;;;;24.35;9.65;;;;;;;;;;5031852;28;20022;-44
2023/12/21 06:20:41;;;;;;;20.55;8.63;;;;;;;;;;5047560;28;20017;-45
2023/12/21 06:23:08;;;;;;;21.98;8.90;;;;;;;;;;5051478;28;20052;-44
2023/12/21 06:25:38;;;;;;;21.30;9.35;;;;;;;;;;5051287;28;20028;-45
2023/12/21 06:28:05;;;;;;;17.95;7.95;;;;;;;;;;5051384;28;20036;-43
2023/12/21 06:30:32;;;;;;;22.02;7.72;;;;;;;;;;5046973;28;20531;-45
2023/12/21 06:32:59;;;;;;;15.05;7.25;;;;;;;;;;5048199;28;20466;-44
2023/12/21 06:35:26;;;;;;;19.60;7.28;;;;;;;;;;5050690;28;20033;-46
2023/12/21 06:37:53;;;;;;;16.35;7.60;;;;;;;;;;5051315;28;20030;-45
2023/12/21 06:40:19;;;;;;;15.90;7.25;;;;;;;;;;5051224;28;20131;-44
2023/12/21 06:42:46;;;;;;;17.45;7.78;;;;;;;;;;5051271;28;20053;-44
2023/12/21 06:45:13;;;;;;;18.30;7.10;;;;;;;;;;5051040;28;20039;-44
2023/12/21 06:47:40;;;;;;;18.13;7.57;;;;;;;;;;5051349;28;20025;-44
2023/12/21 06:50:08;;;;;;;20.77;7.75;;;;;;;;;;5043000;28;20037;-45
2023/12/21 06:52:35;;;;;;;16.52;7.25;;;;;;;;;;5031001;28;20618;-43
2023/12/21 06:55:01;;;;;;;17.33;6.43;;;;;;;;;;5029744;28;20096;-45
2023/12/21 06:57:29;;;;;;;16.38;6.97;;;;;;;;;;5030674;28;20103;-46
2023/12/21 06:59:56;;;;;;;18.45;6.82;;;;;;;;;;5031097;28;20043;-44
2023/12/21 07:02:23;;;;;;;15.25;6.70;;;;;;;;;;5031031;28;20036;-43
2023/12/21 07:04:50;;;;;;;19.88;6.97;;;;;;;;;;5031017;28;20482;-46
2023/12/21 07:07:17;;;;;;;15.43;7.18;;;;;;;;;;5012763;28;20049;-44
2023/12/21 07:09:44;;;;;;;19.25;6.90;;;;;;;;;;5050060;28;20106;-43
2023/12/21 07:12:11;;;;;;;11.82;5.72;;;;;;;;;;5050760;28;20044;-43
2023/12/21 07:14:40;;;;;;;16.27;6.93;;;;;;;;;;5051138;28;20032;-44
2023/12/21 07:17:08;;;;;;;16.05;6.40;;;;;;;;;;5034176;28;20172;-45
2023/12/21 07:19:37;;;;;;;14.63;6.30;;;;;;;;;;5031217;28;20400;-43
2023/12/21 07:22:05;;;;;;;18.40;7.43;;;;;;;;;;5031036;28;20032;-46
2023/12/21 07:24:32;;;;;;;14.15;6.57;;;;;;;;;;5030887;28;20039;-45
2023/12/21 07:26:59;;;;;;;11.95;5.90;;;;;;;;;;5031220;28;20103;-45
2023/12/21 07:29:26;;;;;;;14.65;6.75;;;;;;;;;;5031047;28;20041;-47
2023/12/21 07:31:53;;;;;;;13.60;6.07;;;;;;;;;;5041898;28;20037;-45
2023/12/21 07:34:20;;;;;;;12.73;6.18;;;;;;;;;;5050962;28;20391;-45
2023/12/21 07:36:47;;;;;;;13.30;5.90;;;;;;;;;;5040695;28;20550;-45
2023/12/21 07:39:14;;;;;;;11.73;5.35;;;;;;;;;;5029183;28;20037;-45
2023/12/21 07:41:41;;;;;;;11.40;5.88;;;;;;;;;;5024422;28;20026;-45
2023/12/21 07:44:08;;;;;;;11.73;5.82;;;;;;;;;;5030854;28;20124;-45
2023/12/21 07:46:35;;;;;;;10.45;5.68;;;;;;;;;;5031013;28;20056;-44
2023/12/21 07:49:03;;;;;;;12.57;5.85;;;;;;;;;;5031902;28;20473;-45
2023/12/21 07:51:30;;;;;;;12.25;5.78;;;;;;;;;;5030401;28;20049;-44
2023/12/21 07:53:57;;;;;;;14.07;5.97;;;;;;;;;;5030851;28;20021;-43
2023/12/21 07:56:24;;;;;;;11.88;5.70;;;;;;;;;;5030789;28;20440;-43
2023/12/21 07:58:51;;;;;;;11.70;5.82;;;;;;;;;;5035835;28;20471;-43
2023/12/21 08:01:18;;;;;;;11.55;5.40;;;;;;;;;;5050634;28;20037;-43
2023/12/21 08:03:45;;;;;;;12.10;5.18;;;;;;;;;;5049945;28;20017;-44
2023/12/21 08:06:21;;;;;;;10.88;4.93;;;;;;;;;;5050621;28;20032;-44
2023/12/21 08:08:47;;;;;;;11.15;5.22;;;;;;;;;;5051660;28;20017;-43
2023/12/21 08:11:15;;;;;;;14.10;5.68;;;;;;;;;;5054110;28;20394;-43
2023/12/21 08:13:42;;;;;;;12.45;5.10;;;;;;;;;;5048998;28;20530;-45
2023/12/21 08:16:09;;;;;;;8.85;4.53;;;;;;;;;;5014344;28;20034;-44
2023/12/21 08:18:36;;;;;;;7.88;4.15;;;;;;;;;;5014535;28;20022;-43
2023/12/21 08:21:03;;;;;;;11.23;4.68;;;;;;;;;;5014296;28;20076;-43
2023/12/21 08:23:30;;;;;;;11.95;5.15;;;;;;;;;;5014050;28;20125;-44
2023/12/21 08:25:57;;;;;;;10.02;5.05;;;;;;;;;;5050022;28;20040;-44
2023/12/21 08:28:26;;;;;;;10.13;4.85;;;;;;;;;;5054053;28;20036;-43
2023/12/21 08:30:53;;;;;;;10.38;4.63;;;;;;;;;;5053646;28;20029;-45
2023/12/21 08:33:20;;;;;;;10.60;4.50;;;;;;;;;;5053652;28;20029;-45
2023/12/21 08:35:47;;;;;;;9.20;4.60;;;;;;;;;;5038921;28;20033;-44
2023/12/21 08:38:15;;;;;;;8.60;4.38;;;;;;;;;;5033781;28;20359;-46
2023/12/21 08:40:41;;;;;;;8.18;3.95;;;;;;;;;;5033784;28;20100;-44
2023/12/21 08:43:08;;;;;;;9.57;4.65;;;;;;;;;;5039845;28;20032;-44
2023/12/21 08:45:35;;;;;;;7.88;4.20;;;;;;;;;;5048775;28;20061;-45
2023/12/21 08:48:03;;;;;;;10.70;4.07;;;;;;;;;;5053666;28;20414;-46
2023/12/21 08:50:30;;;;;;;9.27;4.07;;;;;;;;;;5053426;28;20481;-45
2023/12/21 08:52:59;;;;;;;9.85;4.05;;;;;;;;;;5053226;28;20057;-44
2023/12/21 08:55:27;;;;;;;6.95;3.85;;;;;;;;;;5052737;28;20383;-44
2023/12/21 08:57:55;;;;;;;9.60;4.22;;;;;;;;;;5053261;28;20021;-43
2023/12/21 09:00:21;;;;;;;7.70;4.10;;;;;;;;;;5053331;28;20057;-43
2023/12/21 09:02:49;;;;;;;7.75;4.13;;;;;;;;;;5052923;28;20025;-43
2023/12/21 09:05:15;;;;;;;9.40;3.75;;;;;;;;;;5053089;28;20036;-43
2023/12/21 09:07:44;;;;;;;8.23;4.03;;;;;;;;;;5052853;28;20021;-43
2023/12/21 09:10:11;;;;;;;9.30;4.43;;;;;;;;;;5052952;28;20091;-44
2023/12/21 09:12:38;;;;;;;6.82;3.85;;;;;;;;;;5051384;28;20055;-45
2023/12/21 09:15:06;;;;;;;7.20;3.83;;;;;;;;;;5052457;28;20032;-45
2023/12/21 09:17:33;;;;;;;8.57;3.50;;;;;;;;;;5052524;28;20021;-45
2023/12/21 09:20:00;;;;;;;8.38;3.60;;;;;;;;;;5052752;28;20021;-44
2023/12/21 09:22:27;;;;;;;7.13;3.63;;;;;;;;;;5052623;28;20410;-44
2023/12/21 09:24:54;;;;;;;7.03;3.58;;;;;;;;;;5052790;28;20021;-44
2023/12/21 09:27:21;;;;;;;8.90;3.83;;;;;;;;;;5052776;28;20775;-44
2023/12/21 09:29:47;;;;;;;7.95;3.88;;;;;;;;;;5052300;28;20037;-45
2023/12/21 09:32:14;;;;;;;8.07;3.50;;;;;;;;;;5052441;28;20055;-44
2023/12/21 09:34:41;;;;;;;5.97;3.22;;;;;;;;;;5052346;28;20025;-44
2023/12/21 09:37:08;;;;;;;6.80;3.10;;;;;;;;;;5052762;28;20075;-43
2023/12/21 09:39:35;;;;;;;5.30;2.90;;;;;;;;;;5052005;28;20449;-46
2023/12/21 09:42:03;;;;;;;8.48;3.70;;;;;;;;;;5052460;28;20096;-45
2023/12/21 09:44:30;;;;;;;8.20;3.17;;;;;;;;;;5052280;28;20044;-43
2023/12/21 09:46:58;;;;;;;6.88;3.08;;;;;;;;;;5052039;28;20104;-45
2023/12/21 09:49:25;;;;;;;5.70;2.80;;;;;;;;;;5052261;28;20029;-45
2023/12/21 09:51:53;;;;;;;7.20;3.20;;;;;;;;;;5046273;28;20045;-43
2023/12/21 09:54:20;;;;;;;6.53;3.20;;;;;;;;;;5032311;28;20017;-44
2023/12/21 09:56:48;;;;;;;8.60;3.13;;;;;;;;;;5030745;28;20014;-44
2023/12/21 09:59:16;;;;;;;5.47;2.90;;;;;;;;;;5012307;28;20030;-43
2023/12/21 10:01:43;;;;;;;4.75;2.90;;;;;;;;;;5012016;28;20415;-44
2023/12/21 10:04:10;;;;;;;5.22;3.05;;;;;;;;;;5010436;28;20022;-43
2023/12/21 10:06:38;;;;;;;6.10;3.08;;;;;;;;;;5004238;28;20040;-41
2023/12/21 10:09:05;;;;;;;6.20;3.08;;;;;;;;;;5010010;28;20022;-43
2023/12/21 10:11:32;;;;;;;6.60;3.28;;;;;;;;;;5002343;28;20468;-43
2023/12/21 10:14:01;;;;;;;6.50;3.15;;;;;;;;;;5002606;28;20038;-46
2023/12/21 10:16:28;;;;;;;5.22;2.80;;;;;;;;;;5001766;28;20034;-45
2023/12/21 10:18:55;;;;;;;5.90;2.60;;;;;;;;;;5017903;28;20021;-45
2023/12/21 10:21:22;;;;;;;5.22;2.90;;;;;;;;;;5018613;28;20033;-42
2023/12/21 10:23:50;;;;;;;5.60;3.30;;;;;;;;;;5024651;28;20526;-43
2023/12/21 10:26:17;;;;;;;7.28;3.40;;;;;;;;;;5013369;28;20030;-43
2023/12/21 10:28:47;;;;;;;7.10;4.50;;;;;;;;;;5005317;28;20026;-45
2023/12/21 10:31:16;;;;;;;7.43;4.53;;;;;;;;;;5014566;28;20066;-44
2023/12/21 10:33:43;;;;;;;12.95;5.05;;;;;;;;;;5001143;28;20026;-42
2023/12/21 10:36:10;;;;;;;10.48;5.43;;;;;;;;;;5018322;28;20628;-42
2023/12/21 10:38:37;;;;;;;10.48;4.90;;;;;;;;;;5029943;28;20052;-43
2023/12/21 10:41:05;;;;;;;12.40;4.63;;;;;;;;;;5026387;28;20030;-52
2023/12/21 10:43:34;;;;;;;9.63;3.83;;;;;;;;;;4998252;28;20408;-41
2023/12/21 10:46:02;;;;;;;6.97;4.05;;;;;;;;;;5025402;28;20033;-42
2023/12/21 10:48:35;;;;;;;7.35;3.95;;;;;;;;;;5030285;28;20036;-40
2023/12/21 10:51:04;;;;;;;7.85;3.67;;;;;;;;;;5009898;28;20151;-44
2023/12/21 10:53:37;;;;;;;7.90;3.67;;;;;;;;;;5012163;28;20076;-43
2023/12/21 10:56:05;;;;;;;7.07;3.40;;;;;;;;;;5022877;28;20042;-46
2023/12/21 10:58:32;;;;;;;8.50;3.65;;;;;;;;;;5018328;28;20034;-44
2023/12/21 11:01:02;;;;;;;7.38;3.40;;;;;;;;;;5030682;28;20043;-40
2023/12/21 11:03:29;;;;;;;11.93;3.90;;;;;;;;;;5010776;28;20037;-44
2023/12/21 11:05:57;;;;;;;7.72;3.25;;;;;;;;;;5013242;28;20087;-39
2023/12/21 11:08:38;;;;;;;;;;;;;;;;;;;;;
2023/12/21 11:11:05;;;;;;;6.88;3.45;;;;;;;;;;5018195;28;20053;-39
2023/12/21 11:13:32;;;;;;;11.32;3.38;;;;;;;;;;5049381;28;20082;-44
2023/12/21 11:16:00;;;;;;;6.22;3.08;;;;;;;;;;5051228;28;20044;-40
2023/12/21 11:18:27;;;;;;;7.35;3.20;;;;;;;;;;5051081;28;20029;-43
2023/12/21 11:20:59;;;;;;;6.30;3.22;;;;;;;;;;5051340;28;20453;-37
2023/12/21 11:23:27;;;;;;;6.40;3.25;;;;;;;;;;5051082;28;20025;-39
2023/12/21 11:25:58;;;;;;;8.88;2.70;;;;;;;;;;5051142;28;20083;-40
2023/12/21 11:28:27;;;;;;;6.32;2.78;;;;;;;;;;5050547;28;20487;-37
2023/12/21 11:30:54;;;;;;;5.30;2.83;;;;;;;;;;5030580;28;20035;-41
2023/12/21 11:33:31;;;;;;;6.15;3.28;;;;;;;;;;5031064;28;20060;-40
2023/12/21 11:35:57;;;;;;;5.00;2.90;;;;;;;;;;5031272;28;20043;-41
2023/12/21 11:38:38;;;;;;;24.92;3.30;;;;;;;;;;5031232;28;20025;-40
2023/12/21 11:41:05;;;;;;;5.82;2.83;;;;;;;;;;5031058;28;20404;-39
2023/12/21 11:43:32;;;;;;;7.15;3.00;;;;;;;;;;5015687;28;20384;-41
2023/12/21 11:45:59;;;;;;;6.13;2.75;;;;;;;;;;5034851;28;20029;-44
2023/12/21 11:48:26;;;;;;;6.57;3.17;;;;;;;;;;5034996;28;20037;-44
2023/12/21 11:51:01;;;;;;;8.70;3.03;;;;;;;;;;5034841;28;20076;-45
2023/12/21 11:53:28;;;;;;;7.07;2.75;;;;;;;;;;5046809;28;20055;-44
2023/12/21 11:55:55;;;;;;;5.20;2.50;;;;;;;;;;5054719;28;20024;-45
2023/12/21 11:58:23;;;;;;;5.68;2.80;;;;;;;;;;5054342;28;20491;-44
2023/12/21 12:00:51;;;;;;;4.75;2.63;;;;;;;;;;5031819;28;20975;-44
2023/12/21 12:03:19;;;;;;;4.22;2.60;;;;;;;;;;5033934;28;20029;-39
2023/12/21 12:05:48;;;;;;;4.95;2.50;;;;;;;;;;5034489;28;20037;-38
2023/12/21 12:08:21;;;;;;;5.50;2.33;;;;;;;;;;5034360;28;20549;-44
2023/12/21 12:10:48;;;;;;;5.43;2.28;;;;;;;;;;5034278;28;20039;-44
2023/12/21 12:13:19;;;;;;;5.43;2.35;;;;;;;;;;5034296;28;20406;-44
2023/12/21 12:15:51;;;;;;;4.15;2.15;;;;;;;;;;5020999;28;20076;-44
2023/12/21 12:18:17;;;;;;;;;;;;;;;;;;5014766;28;20088;-44
2023/12/21 12:20:45;;;;;;;3.63;2.20;;;;;;;;;;5019885;28;19906;-39
2023/12/21 12:23:12;;;;;;;3.95;2.33;;;;;;;;;;5033890;28;20048;-41
2023/12/21 12:25:39;;;;;;;4.90;2.55;;;;;;;;;;5033827;28;20038;-41
2023/12/21 12:28:06;;;;;;;3.55;2.40;;;;;;;;;;5033707;28;20387;-44
2023/12/21 12:30:33;;;;;;;5.47;2.05;;;;;;;;;;5032737;28;20510;-45
2023/12/21 12:33:02;;;;;;;13.13;2.22;;;;;;;;;;5033971;28;20029;-45
2023/12/21 12:35:32;;;;;;;6.07;2.40;;;;;;;;;;5033702;28;20088;-45
2023/12/21 12:37:59;;;;;;;6.60;2.20;;;;;;;;;;5018919;28;20052;-43
2023/12/21 12:40:26;;;;;;;5.63;1.90;;;;;;;;;;5022940;28;20038;-45
2023/12/21 12:42:53;;;;;;;4.53;2.00;;;;;;;;;;5026419;28;20025;-45
2023/12/21 12:45:20;;;;;;;6.53;2.03;;;;;;;;;;5025792;28;20029;-43
2023/12/21 12:47:47;;;;;;;3.72;1.90;;;;;;;;;;5033632;28;20029;-43
2023/12/21 12:50:17;;;;;;;4.75;1.95;;;;;;;;;;5033690;28;20538;-43
2023/12/21 12:52:44;;;;;;;5.30;2.00;;;;;;;;;;5033635;28;20526;-43
2023/12/21 12:55:11;;;;;;;4.28;1.70;;;;;;;;;;5015037;28;20384;-43
2023/12/21 12:57:38;;;;;;;5.13;1.95;;;;;;;;;;5033612;28;20084;-43
2023/12/21 13:00:06;;;;;;;6.15;1.95;;;;;;;;;;5033807;28;20033;-45
2023/12/21 13:02:33;;;;;;;5.28;1.92;;;;;;;;;;5032680;28;20495;-45
2023/12/21 13:05:00;;;;;;;5.68;1.65;;;;;;;;;;5033213;28;20033;-46
2023/12/21 13:07:28;;;;;;;6.68;2.15;;;;;;;;;;5033343;28;20036;-44
2023/12/21 13:09:54;;;;;;;6.18;1.80;;;;;;;;;;5033410;28;20540;-46
2023/12/21 13:12:21;;;;;;;4.68;1.70;;;;;;;;;;5033311;28;20041;-43
2023/12/21 13:14:48;;;;;;;8.48;1.80;;;;;;;;;;5033205;28;20029;-43
2023/12/21 13:17:19;;;;;;;6.65;1.83;;;;;;;;;;5033295;28;20025;-43
2023/12/21 13:19:47;;;;;;;4.28;1.70;;;;;;;;;;5033297;28;20049;-43
2023/12/21 13:22:14;;;;;;;4.32;1.88;;;;;;;;;;5043706;28;20032;-43
2023/12/21 13:24:41;;;;;;;4.78;1.48;;;;;;;;;;5052368;28;20044;-45
2023/12/21 13:27:08;;;;;;;6.35;1.80;;;;;;;;;;5052788;28;20029;-44
2023/12/21 13:29:35;;;;;;;6.22;1.83;;;;;;;;;;5052796;28;20033;-43
2023/12/21 13:32:02;;;;;;;6.53;1.90;;;;;;;;;;5052702;28;20423;-43
2023/12/21 13:34:32;;;;;;;2.88;1.38;;;;;;;;;;5052773;28;20025;-44
2023/12/21 13:37:02;;;;;;;5.40;1.70;;;;;;;;;;5052787;28;20040;-45
2023/12/21 13:39:29;;;;;;;5.68;1.80;;;;;;;;;;5052806;28;20138;-43
2023/12/21 13:41:56;;;;;;;5.20;1.60;;;;;;;;;;5052552;28;20398;-43
2023/12/21 13:44:25;;;;;;;3.63;1.70;;;;;;;;;;5052372;28;20035;-43
2023/12/21 13:46:56;;;;;;;6.07;1.67;;;;;;;;;;5032936;28;20888;-43
2023/12/21 13:49:24;;;;;;;5.03;1.40;;;;;;;;;;5033684;28;20419;-43
2023/12/21 13:51:51;;;;;;;3.33;1.70;;;;;;;;;;5032289;28;20124;-43
2023/12/21 13:54:18;;;;;;;5.20;1.70;;;;;;;;;;5032535;28;20116;-45
2023/12/21 13:56:46;;;;;;;6.82;1.70;;;;;;;;;;5032530;28;20022;-46
2023/12/21 13:59:13;;;;;;;8.32;2.05;;;;;;;;;;5032579;28;20116;-45
2023/12/21 14:01:40;;;;;;;3.25;1.50;;;;;;;;;;5032407;28;20044;-45
2023/12/21 14:04:08;;;;;;;4.57;1.30;;;;;;;;;;5032192;28;20029;-45
2023/12/21 14:06:35;;;;;;;4.65;1.50;;;;;;;;;;5030866;28;20533;-45
2023/12/21 14:09:02;;;;;;;2.80;1.50;;;;;;;;;;5031948;28;20063;-43
2023/12/21 14:11:29;;;;;;;4.20;1.50;;;;;;;;;;5032161;28;20104;-43
2023/12/21 14:13:56;;;;;;;4.90;1.45;;;;;;;;;;5038080;28;20040;-43
2023/12/21 14:16:23;;;;;;;4.80;1.30;;;;;;;;;;5051800;28;20417;-42
2023/12/21 14:18:50;;;;;;;2.13;1.10;;;;;;;;;;5052029;28;20028;-43
2023/12/21 14:21:17;;;;;;;3.42;1.17;;;;;;;;;;5051920;28;20127;-43
2023/12/21 14:23:44;;;;;;;6.07;1.48;;;;;;;;;;5047748;28;20037;-43
2023/12/21 14:26:11;;;;;;;4.05;1.23;;;;;;;;;;5031774;28;20047;-45
2023/12/21 14:28:38;;;;;;;3.92;1.45;;;;;;;;;;5031995;28;20060;-45
2023/12/21 14:31:05;;;;;;;3.63;1.40;;;;;;;;;;5046743;28;20044;-45
2023/12/21 14:33:33;;;;;;;6.30;1.40;;;;;;;;;;5040692;28;20068;-41